createdAt,value
2022-09-07T00:03:58.955Z,11.91
2022-09-07T00:09:02.173Z,11.07
2022-09-07T00:14:05.637Z,13.13
2022-09-07T00:19:08.555Z,12.31
2022-09-07T00:24:11.178Z,10.81
2022-09-07T00:29:13.863Z,12.40
2022-09-07T00:34:16.939Z,11.97
2022-09-07T00:39:19.557Z,10.70
2022-09-07T00:44:40.960Z,12.36
2022-09-07T00:55:20.963Z,10.71
2022-09-07T01:00:23.666Z,12.10
2022-09-07T01:05:39.265Z,10.50
2022-09-07T01:10:41.942Z,11.34
2022-09-07T01:16:02.171Z,11.22
2022-09-07T01:21:17.080Z,10.65
2022-09-07T01:26:38.235Z,11.88
2022-09-07T01:31:51.668Z,10.05
2022-09-07T01:36:57.136Z,10.06
2022-09-07T01:42:04.253Z,12.04
2022-09-07T01:47:20.811Z,11.13
2022-09-07T01:52:33.169Z,10.27
2022-09-07T01:57:39.401Z,11.96
2022-09-07T02:02:51.702Z,10.66
2022-09-07T02:07:58.817Z,9.22
2022-09-07T02:13:08.353Z,10.94
2022-09-07T02:18:13.941Z,11.90
2022-09-07T02:23:23.270Z,10.11
2022-09-07T02:28:30.877Z,9.64
2022-09-07T02:33:34.268Z,11.56
2022-09-07T02:38:36.980Z,12.15
2022-09-07T02:43:40.101Z,10.24
2022-09-07T02:48:50.065Z,8.81
2022-09-07T02:54:02.704Z,10.42
2022-09-07T02:59:24.016Z,11.63
2022-09-07T03:04:29.646Z,9.85
2022-09-07T03:09:35.922Z,10.10
2022-09-07T03:14:43.132Z,11.68
2022-09-07T03:19:45.793Z,10.50
2022-09-07T03:24:48.402Z,9.65
2022-09-07T03:29:50.993Z,11.14
2022-09-07T03:34:53.836Z,9.98
2022-09-07T03:39:56.661Z,9.44
2022-09-07T03:44:59.368Z,11.05
2022-09-07T03:50:02.099Z,12.07
2022-09-07T03:55:05.203Z,12.03
2022-09-07T04:00:08.444Z,9.82
2022-09-07T04:05:11.706Z,9.17
2022-09-07T04:10:14.383Z,10.95
2022-09-07T04:15:17.020Z,10.50
2022-09-07T04:20:19.870Z,10.40
2022-09-07T04:25:22.505Z,11.48
2022-09-07T04:30:25.123Z,10.36
2022-09-07T04:35:28.232Z,8.91
2022-09-07T04:40:30.971Z,10.30
2022-09-07T04:45:36.295Z,12.34
2022-09-07T04:50:38.988Z,11.96
2022-09-07T04:55:41.612Z,11.31
2022-09-07T05:00:44.266Z,11.31
2022-09-07T05:05:46.949Z,11.77
2022-09-07T05:10:53.140Z,14.21
2022-09-07T05:15:56.031Z,14.77
2022-09-07T05:21:07.142Z,14.14
2022-09-07T05:26:11.165Z,14.02
2022-09-07T05:36:19.144Z,14.75
2022-09-07T05:41:23.275Z,16.18
2022-09-07T05:46:25.905Z,17.74
2022-09-07T05:51:28.871Z,17.73
2022-09-07T05:56:33.829Z,17.91
2022-09-07T06:01:36.656Z,18.15
2022-09-07T06:06:39.227Z,18.64
2022-09-07T06:11:41.900Z,19.31
2022-09-07T06:16:44.774Z,19.91
2022-09-07T06:21:47.577Z,20.34
2022-09-07T06:26:50.262Z,20.93
2022-09-07T06:37:15.553Z,22.23
2022-09-07T06:42:18.201Z,22.91
2022-09-07T06:47:20.827Z,23.64
2022-09-07T06:52:23.864Z,24.47
2022-09-07T06:57:27.249Z,25.38
2022-09-07T07:02:29.922Z,26.39
2022-09-07T07:07:32.644Z,27.31
2022-09-07T07:17:40.065Z,28.83
2022-09-07T07:22:46.749Z,29.63
2022-09-07T07:27:50.362Z,30.20
2022-09-07T07:32:53.299Z,30.49
2022-09-07T07:43:18.983Z,31.57
2022-09-07T07:48:21.678Z,31.88
2022-09-07T07:53:41.890Z,32.18
2022-09-07T07:58:47.336Z,32.18
2022-09-07T08:03:51.058Z,32.67
2022-09-07T08:08:54.912Z,33.21
2022-09-07T08:14:00.348Z,33.72
2022-09-07T08:19:03.486Z,33.75
2022-09-07T08:24:06.151Z,34.01
2022-09-07T08:29:08.762Z,34.13
2022-09-07T08:34:11.574Z,34.59
2022-09-07T08:39:14.542Z,34.57
2022-09-07T08:44:28.787Z,34.97
2022-09-07T08:49:49.837Z,35.03
2022-09-07T08:55:00.839Z,35.00
2022-09-07T09:00:08.916Z,35.44
2022-09-07T09:05:16.976Z,35.68
2022-09-07T09:10:28.252Z,36.15
2022-09-07T09:15:35.557Z,36.70
2022-09-07T09:20:46.412Z,37.27
2022-09-07T09:25:56.193Z,37.30
2022-09-07T09:30:58.825Z,37.53
2022-09-07T09:36:02.085Z,37.88
2022-09-07T09:41:08.982Z,38.06
2022-09-07T09:46:23.065Z,38.47
2022-09-07T09:56:50.229Z,38.95
2022-09-07T10:07:23.100Z,39.50
2022-09-07T10:12:33.990Z,39.40
2022-09-07T10:17:42.286Z,39.34
2022-09-07T10:23:05.153Z,39.64
2022-09-07T10:28:14.253Z,39.65
2022-09-07T10:33:16.849Z,40.05
2022-09-07T10:38:21.181Z,39.77
2022-09-07T10:43:23.854Z,40.01
2022-09-07T10:48:29.713Z,40.26
2022-09-07T10:54:29.880Z,40.61
2022-09-07T10:59:26.547Z,39.83
2022-09-07T11:04:35.506Z,39.17
2022-09-07T11:09:51.459Z,39.65
2022-09-07T11:14:58.340Z,40.06
2022-09-07T11:20:18.644Z,40.22
2022-09-07T11:25:36.657Z,40.83
2022-09-07T11:30:47.769Z,41.29
2022-09-07T11:35:53.427Z,40.89
2022-09-07T11:40:56.007Z,40.57
2022-09-07T11:46:05.097Z,40.74
2022-09-07T11:51:15.887Z,41.08
2022-09-07T11:56:26.079Z,41.24
2022-09-07T12:01:40.907Z,41.83
2022-09-07T12:06:46.515Z,41.77
2022-09-07T12:11:55.063Z,41.20
2022-09-07T12:17:08.560Z,40.55
2022-09-07T12:22:22.026Z,40.38
2022-09-07T12:27:25.623Z,40.71
2022-09-07T12:32:55.670Z,40.92
2022-09-07T12:38:00.470Z,41.32
2022-09-07T12:43:15.069Z,41.96
2022-09-07T12:48:17.642Z,41.85
2022-09-07T12:53:26.136Z,41.06
2022-09-07T12:58:31.790Z,39.92
2022-09-07T13:03:50.089Z,39.23
2022-09-07T13:08:56.874Z,39.62
2022-09-07T13:14:03.925Z,39.81
2022-09-07T13:19:12.449Z,39.82
2022-09-07T13:29:42.217Z,40.30
2022-09-07T13:34:50.651Z,40.04
2022-09-07T13:39:55.663Z,39.70
2022-09-07T13:45:02.603Z,39.42
2022-09-07T13:50:31.457Z,38.97
2022-09-07T13:55:40.176Z,38.09
2022-09-07T14:00:53.483Z,38.29
2022-09-07T14:06:15.085Z,38.69
2022-09-07T14:11:23.080Z,38.71
2022-09-07T14:16:25.731Z,38.08
2022-09-07T14:21:28.330Z,37.40
2022-09-07T14:26:30.968Z,37.01
2022-09-07T14:31:34.829Z,35.66
2022-09-07T14:36:45.722Z,34.41
2022-09-07T14:41:49.623Z,33.41
2022-09-07T14:46:56.505Z,33.78
2022-09-07T14:52:00.678Z,33.65
2022-09-07T14:57:05.319Z,32.64
2022-09-07T15:02:14.934Z,31.27
2022-09-07T15:07:37.691Z,29.73
2022-09-07T15:12:44.275Z,28.40
2022-09-07T15:17:46.986Z,27.15
2022-09-07T15:22:49.717Z,25.99
2022-09-07T15:27:53.744Z,25.14
2022-09-07T15:32:57.408Z,25.11
2022-09-07T15:38:01.413Z,26.07
2022-09-07T15:43:13.993Z,26.86
2022-09-07T15:48:25.454Z,29.01
2022-09-07T15:58:54.921Z,30.66
2022-09-07T16:03:58.531Z,29.27
2022-09-07T16:09:01.480Z,27.91
2022-09-07T16:14:04.630Z,26.34
2022-09-07T16:19:08.064Z,24.93
2022-09-07T16:24:10.952Z,23.78
2022-09-07T16:29:13.650Z,22.84
2022-09-07T16:34:21.981Z,22.08
2022-09-07T16:39:24.646Z,21.33
2022-09-07T16:44:27.278Z,20.54
2022-09-07T16:49:30.291Z,19.96
2022-09-07T16:54:32.983Z,19.45
2022-09-07T16:59:35.785Z,18.93
2022-09-07T17:04:38.379Z,18.38
2022-09-07T17:09:41.391Z,17.91
2022-09-07T17:14:43.986Z,17.55
2022-09-07T17:19:46.690Z,17.21
2022-09-07T17:24:49.267Z,16.89
2022-09-07T17:29:53.875Z,16.58
2022-09-07T17:34:57.240Z,16.27
2022-09-07T17:39:59.898Z,15.96
2022-09-07T17:45:04.453Z,15.68
2022-09-07T17:50:07.429Z,15.44
2022-09-07T17:55:09.971Z,15.22
2022-09-07T18:00:13.200Z,15.02
2022-09-07T18:05:15.851Z,14.83
2022-09-07T18:10:18.612Z,14.64
2022-09-07T18:15:22.624Z,14.45
2022-09-07T18:20:25.877Z,14.27
2022-09-07T18:25:29.280Z,14.11
2022-09-07T18:30:34.998Z,13.95
2022-09-07T18:35:38.214Z,13.80
2022-09-07T18:40:40.792Z,13.66
2022-09-07T18:45:43.600Z,13.52
2022-09-07T18:50:52.652Z,13.39
2022-09-07T18:56:00.730Z,13.24
2022-09-07T19:01:04.729Z,13.12
2022-09-07T19:06:15.424Z,12.99
2022-09-07T19:11:19.232Z,12.88
2022-09-07T19:16:21.885Z,12.77
2022-09-07T19:21:25.537Z,12.68
2022-09-07T19:26:30.021Z,12.58
2022-09-07T19:31:32.739Z,12.50
2022-09-07T19:36:36.052Z,12.43
2022-09-07T19:41:41.984Z,12.35
2022-09-07T19:46:45.347Z,12.26
2022-09-07T19:51:51.199Z,12.15
2022-09-07T19:56:53.887Z,12.02
2022-09-07T20:01:56.655Z,11.89
2022-09-07T20:06:59.214Z,11.77
2022-09-07T20:12:03.944Z,11.64
2022-09-07T20:17:06.828Z,11.52
2022-09-07T20:22:09.377Z,11.42
2022-09-07T20:27:12.307Z,11.33
2022-09-07T20:32:15.259Z,11.26
2022-09-07T20:37:17.841Z,11.23
2022-09-07T20:42:20.589Z,11.18
2022-09-07T20:47:24.252Z,11.15
2022-09-07T20:52:27.156Z,11.12
2022-09-07T20:57:29.764Z,11.07
2022-09-07T21:02:32.472Z,11.04
2022-09-07T21:07:37.831Z,11.01
2022-09-07T21:12:40.614Z,10.97
2022-09-07T21:17:43.180Z,10.94
2022-09-07T21:22:45.967Z,10.90
2022-09-07T21:27:48.847Z,10.86
2022-09-07T21:32:52.345Z,10.80
2022-09-07T21:37:55.032Z,10.75
2022-09-07T21:42:57.638Z,10.69
2022-09-07T21:48:00.428Z,10.63
2022-09-07T21:53:02.966Z,10.57
2022-09-07T21:58:05.724Z,10.51
2022-09-07T22:03:08.422Z,10.45
2022-09-07T22:08:11.041Z,10.38
2022-09-07T22:13:13.585Z,10.32
2022-09-07T22:18:16.213Z,10.25
2022-09-07T22:23:18.739Z,10.17
2022-09-07T22:28:21.303Z,10.07
2022-09-07T22:33:24.311Z,9.98
2022-09-07T22:38:27.617Z,9.85
2022-09-07T22:43:30.262Z,9.74
2022-09-07T22:48:33.005Z,9.64
2022-09-07T22:53:36.619Z,9.57
2022-09-07T22:58:39.550Z,9.52
2022-09-07T23:03:43.511Z,9.48
2022-09-07T23:08:46.377Z,9.46
2022-09-07T23:13:53.217Z,9.48
2022-09-07T23:18:57.259Z,9.47
2022-09-07T23:24:00.422Z,10.14
2022-09-07T23:29:04.921Z,12.79
2022-09-07T23:34:07.880Z,12.21
2022-09-07T23:39:11.275Z,11.33
2022-09-07T23:44:14.180Z,10.82
2022-09-07T23:49:16.776Z,11.65
2022-09-07T23:54:19.474Z,12.65
2022-09-07T23:59:22.172Z,11.64
